KAGS/AGS METAR and TAF weather

Enter ICAO airport designator
Station Type Date Time Source
KAGS METAR 2021/01/17 18:53 UTC NOAA

KAGS 171853Z 28009G16KT 10SM CLR 12/M03 A2993 RMK AO2 SLP134 T01221028


Station Type Date Time Source
KAGS Decoded METAR 2021/01/17 18:53 UTC NOAA

AUGUSTA BUSH FIELD, GA, United States (KAGS) 33-22N 081-58W 44M
Jan 17, 2021 - 01:53 PM EST / 2021.01.17 1853 UTC
Wind: from the W (280 degrees) at 10 MPH (9 KT) gusting to 18 MPH (16 KT):0
Visibility: 10 mile(s):0
Sky conditions: clear
Temperature: 54.0 F (12.2 C)
Dew Point: 27.0 F (-2.8 C)
Relative Humidity: 35%
Pressure (altimeter): 29.93 in. Hg (1013 hPa)
ob: KAGS 171853Z 28009G16KT 10SM CLR 12/M03 A2993 RMK AO2 SLP134 T01221028
cycle: 19

Station Type Date Time Source
KAGS TAF 2021/01/17 18:24 UTC NOAA

TAF KAGS 171721Z 1718/1818 26010G15KT P6SM SCT040
FM180000 24005KT P6SM SCT080 BKN250
FM180800 26006KT P6SM BKN100
FM181500 28011KT P6SM SCT040

Example: see airport list